Time;durP1;ratioP1;P1;durP2;ratioP2;P2;SDS_P1;SDS_P2;PMS_P1;PMS_P2;Temp;Humidity;BMP_temperature;BMP_pressure;BME280_temperature;BME280_humidity;BME280_pressure;Samples;Min_cycle;Max_cycle;Signal;HPM_P1;HPM_P2
2022/10/07 00:01:45;;;;;;;10.40;2.70;;;11.10;99.90;;;;;;4937801;29;20052;-81
2022/10/07 00:04:14;;;;;;;14.95;2.35;;;11.10;99.90;;;;;;4937769;29;20513;-81
2022/10/07 00:06:40;;;;;;;9.15;2.33;;;11.10;99.90;;;;;;4937915;29;20059;-81
2022/10/07 00:09:06;;;;;;;12.13;2.42;;;11.10;99.90;;;;;;4937755;29;20047;-82
2022/10/07 00:11:31;;;;;;;11.75;2.28;;;11.10;99.90;;;;;;4920702;29;20491;-81
2022/10/07 00:14:00;;;;;;;10.68;2.25;;;11.00;99.90;;;;;;4920716;29;20044;-81
2022/10/07 00:16:31;;;;;;;15.05;2.35;;;11.00;99.90;;;;;;4937644;29;20043;-82
2022/10/07 00:18:59;;;;;;;10.70;2.15;;;11.00;99.90;;;;;;4937494;29;20043;-82
2022/10/07 00:21:27;;;;;;;14.18;2.47;;;11.00;99.90;;;;;;4920684;29;20051;-82
2022/10/07 00:23:52;;;;;;;11.80;2.10;;;11.00;99.90;;;;;;4920474;29;20063;-81
2022/10/07 00:26:21;;;;;;;12.60;2.83;;;11.00;99.90;;;;;;4920724;29;20055;-82
2022/10/07 00:28:47;;;;;;;15.10;4.05;;;11.00;99.90;;;;;;4937459;29;20131;-81
2022/10/07 00:31:15;;;;;;;9.35;2.50;;;11.00;99.90;;;;;;4937406;29;20123;-82
2022/10/07 00:33:41;;;;;;;10.73;2.08;;;11.00;99.90;;;;;;4920223;29;20051;-82
2022/10/07 00:36:12;;;;;;;8.93;2.05;;;11.00;99.90;;;;;;4937621;29;20051;-82
2022/10/07 00:38:39;;;;;;;12.68;2.45;;;11.00;99.90;;;;;;4937306;29;20114;-82
2022/10/07 00:41:06;;;;;;;12.30;2.13;;;11.00;99.90;;;;;;4920178;29;20510;-84
2022/10/07 00:43:32;;;;;;;9.93;2.42;;;11.00;99.90;;;;;;4937063;29;20130;-82
2022/10/07 00:46:23;;;;;;;9.73;2.10;;;11.00;99.90;;;;;;4919994;29;20079;-82
2022/10/07 00:48:49;;;;;;;10.73;2.30;;;11.00;99.90;;;;;;4937132;29;20047;-82
2022/10/07 00:51:15;;;;;;;8.32;2.28;;;11.00;99.90;;;;;;4920374;29;20051;-81
2022/10/07 00:53:44;;;;;;;8.63;1.90;;;11.00;99.90;;;;;;4920013;29;20060;-81
2022/10/07 00:56:10;;;;;;;14.93;2.58;;;11.00;99.90;;;;;;4936665;29;20052;-82
2022/10/07 00:58:38;;;;;;;12.85;2.17;;;11.00;99.90;;;;;;4919715;29;20048;-81
2022/10/07 01:01:04;;;;;;;12.07;2.75;;;11.00;99.90;;;;;;4919943;29;20138;-81
2022/10/07 01:03:32;;;;;;;10.45;2.25;;;10.90;99.90;;;;;;4936841;29;20095;-81
2022/10/07 01:05:58;;;;;;;10.38;2.13;;;11.00;99.90;;;;;;4937330;29;20046;-82
2022/10/07 01:08:24;;;;;;;9.30;1.90;;;10.90;99.90;;;;;;4919778;29;20052;-82
2022/10/07 01:11:30;;;;;;;11.18;1.92;;;11.00;99.90;;;;;;4920035;29;20053;-82
2022/10/07 01:14:06;;;;;;;13.23;2.08;;;11.00;99.90;;;;;;4936817;29;20051;-82
2022/10/07 01:16:36;;;;;;;14.70;2.38;;;11.00;99.90;;;;;;4936577;29;20126;-81
2022/10/07 01:19:36;;;;;;;12.52;2.42;;;10.90;99.90;;;;;;4920281;29;20055;-82
2022/10/07 01:22:12;;;;;;;12.25;2.15;;;10.90;99.90;;;;;;4905756;29;20063;-82
2022/10/07 01:24:46;;;;;;;11.60;2.05;;;10.90;99.90;;;;;;4936820;29;20379;-82
2022/10/07 01:27:15;;;;;;;9.65;2.28;;;10.90;99.90;;;;;;4936419;29;20387;-82
2022/10/07 01:29:56;;;;;;;10.73;2.05;;;10.90;99.90;;;;;;4936594;29;20059;-81
2022/10/07 01:32:31;;;;;;;10.02;2.35;;;10.90;99.90;;;;;;4936435;29;20399;-82
2022/10/07 01:34:58;;;;;;;11.93;2.45;;;10.90;99.90;;;;;;4936519;29;20048;-81
2022/10/07 01:37:28;;;;;;;10.48;1.80;;;10.90;99.90;;;;;;4936363;29;20612;-82
2022/10/07 01:40:08;;;;;;;10.35;2.00;;;11.00;99.90;;;;;;4936613;29;20047;-81
2022/10/07 01:42:35;;;;;;;14.65;2.33;;;11.00;99.90;;;;;;4936760;29;20079;-81
2022/10/07 01:45:02;;;;;;;12.15;2.47;;;11.00;99.90;;;;;;4936635;29;20075;-81
2022/10/07 01:47:28;;;;;;;10.80;1.98;;;11.00;99.90;;;;;;4919614;29;20047;-81
2022/10/07 01:49:53;;;;;;;7.53;2.50;;;11.00;99.90;;;;;;4919107;29;20384;-81
2022/10/07 01:53:01;;;;;;;11.63;2.65;;;11.00;99.90;;;;;;4936368;29;20134;-81
2022/10/07 01:55:45;;;;;;;8.70;1.85;;;11.00;99.90;;;;;;4893455;29;20059;-81
2022/10/07 01:58:30;;;;;;;11.55;2.33;;;11.00;99.90;;;;;;4919390;29;20127;-81
2022/10/07 02:01:06;;;;;;;10.90;2.30;;;11.00;99.90;;;;;;4919043;29;20487;-82
2022/10/07 02:03:52;;;;;;;13.80;2.50;;;10.90;99.90;;;;;;4920841;29;20047;-82
2022/10/07 02:06:25;;;;;;;10.27;2.65;;;10.90;99.90;;;;;;4940447;29;20052;-82
2022/10/07 02:09:06;;;;;;;10.15;2.22;;;10.90;99.90;;;;;;4940086;29;20046;-82
2022/10/07 02:11:39;;;;;;;16.10;2.47;;;10.80;99.90;;;;;;4922725;29;20488;-82
2022/10/07 02:14:17;;;;;;;12.95;2.13;;;10.80;99.90;;;;;;4923622;29;20054;-82
2022/10/07 02:16:47;;;;;;;7.88;2.47;;;10.80;99.90;;;;;;4939921;29;20051;-82
2022/10/07 02:19:23;;;;;;;10.68;2.50;;;10.70;99.90;;;;;;4922565;29;20055;-81
2022/10/07 02:21:52;;;;;;;9.23;2.28;;;10.70;99.90;;;;;;4922800;29;20040;-82
2022/10/07 02:24:21;;;;;;;11.57;2.38;;;10.70;99.90;;;;;;4922615;29;20052;-81
2022/10/07 02:26:50;;;;;;;7.97;2.38;;;10.70;99.90;;;;;;4922611;29;20431;-82
2022/10/07 02:29:19;;;;;;;11.13;2.40;;;10.70;99.90;;;;;;4922797;29;20495;-81
2022/10/07 02:31:47;;;;;;;8.88;2.78;;;10.60;99.90;;;;;;4939922;29;20035;-83
2022/10/07 02:34:21;;;;;;;10.25;3.17;;;10.60;99.90;;;;;;4940950;29;20055;-81
2022/10/07 02:36:53;;;;;;;16.85;2.80;;;10.60;99.90;;;;;;4924636;29;20055;-81
2022/10/07 02:39:20;;;;;;;8.13;2.70;;;10.60;99.90;;;;;;4941624;29;20075;-81
2022/10/07 02:41:57;;;;;;;11.85;2.65;;;10.60;99.90;;;;;;4923601;29;20634;-82
2022/10/07 02:44:51;;;;;;;12.98;2.97;;;10.70;99.90;;;;;;4923746;29;20079;-81
2022/10/07 02:47:27;;;;;;;16.20;2.67;;;10.70;99.90;;;;;;4923335;29;20403;-81
2022/10/07 02:49:56;;;;;;;14.30;3.00;;;10.70;99.90;;;;;;4923839;29;20498;-81
2022/10/07 02:52:23;;;;;;;15.90;3.22;;;10.70;99.90;;;;;;4923093;29;20082;-83
2022/10/07 02:54:59;;;;;;;14.32;3.67;;;10.70;99.90;;;;;;4923264;29;20178;-81
2022/10/07 02:57:33;;;;;;;13.35;3.58;;;10.70;99.90;;;;;;4923500;29;20114;-82
2022/10/07 03:00:00;;;;;;;12.30;3.10;;;10.70;99.90;;;;;;4940248;29;20115;-81
2022/10/07 03:02:56;;;;;;;13.60;3.80;;;10.70;99.90;;;;;;4941426;29;20122;-82
2022/10/07 03:05:24;;;;;;;12.75;3.80;;;10.70;99.90;;;;;;4921903;29;20067;-81
2022/10/07 03:08:01;;;;;;;8.88;3.22;;;10.60;99.90;;;;;;4922462;29;20130;-81
2022/10/07 03:10:27;;;;;;;14.20;3.67;;;10.60;99.90;;;;;;4923733;29;20067;-81
2022/10/07 03:12:54;;;;;;;13.95;3.47;;;10.60;99.90;;;;;;4940960;29;20055;-81
2022/10/07 03:15:21;;;;;;;14.05;3.22;;;10.60;99.90;;;;;;4923110;29;20044;-81
2022/10/07 03:17:46;;;;;;;14.63;3.00;;;10.60;99.90;;;;;;4939259;29;20043;-81
2022/10/07 03:20:13;;;;;;;12.70;3.97;;;10.70;99.90;;;;;;4939942;29;20487;-82
2022/10/07 03:22:43;;;;;;;13.60;4.72;;;10.70;99.90;;;;;;4923109;29;20059;-82
2022/10/07 03:25:11;;;;;;;8.38;3.20;;;10.60;99.90;;;;;;4923445;29;20368;-82
2022/10/07 03:27:37;;;;;;;10.40;3.13;;;10.60;99.90;;;;;;4939764;29;20051;-82
2022/10/07 03:30:04;;;;;;;11.95;4.18;;;10.60;99.90;;;;;;4923038;29;20048;-81
2022/10/07 03:32:30;;;;;;;11.52;3.55;;;10.70;99.90;;;;;;4922636;29;20047;-82
2022/10/07 03:34:55;;;;;;;18.65;3.70;;;10.70;99.90;;;;;;4940077;29;20090;-81
2022/10/07 03:37:22;;;;;;;13.98;3.45;;;10.60;99.90;;;;;;4922673;29;20475;-81
2022/10/07 03:39:52;;;;;;;10.80;3.38;;;10.60;99.90;;;;;;4940134;29;20491;-83
2022/10/07 03:42:18;;;;;;;14.77;3.80;;;10.70;99.90;;;;;;4922999;29;20099;-82
2022/10/07 03:44:45;;;;;;;16.35;4.32;;;10.60;99.90;;;;;;4923121;29;20056;-82
2022/10/07 03:47:10;;;;;;;13.18;3.95;;;10.60;99.90;;;;;;4923442;29;20503;-81
2022/10/07 03:49:36;;;;;;;19.90;4.20;;;10.60;99.90;;;;;;4922841;29;20081;-81
2022/10/07 03:52:05;;;;;;;16.20;4.15;;;10.60;99.90;;;;;;4940395;29;20076;-81
2022/10/07 03:54:33;;;;;;;13.50;3.97;;;10.60;99.90;;;;;;4922548;29;20079;-81
2022/10/07 03:56:59;;;;;;;14.38;4.05;;;10.50;99.90;;;;;;4922890;29;20087;-82
2022/10/07 03:59:25;;;;;;;10.70;3.80;;;10.60;99.90;;;;;;4923355;29;20099;-82
2022/10/07 04:01:51;;;;;;;15.85;3.80;;;10.50;99.90;;;;;;4940711;29;20067;-82
2022/10/07 04:04:17;;;;;;;8.32;4.00;;;10.50;99.90;;;;;;4922565;29;20483;-82
2022/10/07 04:06:42;;;;;;;13.85;4.50;;;10.50;99.90;;;;;;4921753;29;20475;-82
2022/10/07 04:09:11;;;;;;;16.58;5.85;;;10.50;99.90;;;;;;4937848;29;20048;-82
2022/10/07 04:11:39;;;;;;;14.57;4.38;;;10.50;99.90;;;;;;4920739;29;20517;-81
2022/10/07 04:14:05;;;;;;;16.23;4.13;;;10.50;99.90;;;;;;4920908;29;20103;-82
2022/10/07 04:16:32;;;;;;;17.48;5.25;;;10.60;99.90;;;;;;4920724;29;20486;-82
2022/10/07 04:18:58;;;;;;;10.75;4.43;;;10.50;99.90;;;;;;4920499;29;20052;-82
2022/10/07 04:21:23;;;;;;;18.13;5.32;;;10.60;99.90;;;;;;4920682;29;20054;-82
2022/10/07 04:23:49;;;;;;;17.25;4.30;;;10.50;99.90;;;;;;4937340;29;20048;-82
2022/10/07 04:26:14;;;;;;;13.95;4.68;;;10.50;99.90;;;;;;4919868;29;20380;-81
2022/10/07 04:28:41;;;;;;;16.30;3.97;;;10.60;99.90;;;;;;4920574;29;20077;-82
2022/10/07 04:31:09;;;;;;;13.10;3.78;;;10.60;99.90;;;;;;4920257;29;20103;-82
2022/10/07 04:33:38;;;;;;;10.07;4.30;;;10.60;99.90;;;;;;4937853;29;20066;-82
2022/10/07 04:36:05;;;;;;;16.67;4.28;;;10.60;99.90;;;;;;4938706;29;20479;-81
2022/10/07 04:38:34;;;;;;;13.75;4.50;;;10.60;99.90;;;;;;4939379;29;20027;-82
2022/10/07 04:41:06;;;;;;;20.23;4.30;;;10.50;99.90;;;;;;4922269;29;20116;-81
2022/10/07 04:43:33;;;;;;;17.65;5.18;;;10.60;99.90;;;;;;4921628;29;20050;-81
2022/10/07 04:46:04;;;;;;;15.32;4.15;;;10.60;99.90;;;;;;4922545;29;20044;-82
2022/10/07 04:48:31;;;;;;;15.77;4.43;;;10.60;99.90;;;;;;4939169;29;20144;-81
2022/10/07 04:51:01;;;;;;;17.88;4.32;;;10.60;99.90;;;;;;4939155;29;20043;-82
2022/10/07 04:53:28;;;;;;;12.52;4.13;;;10.60;99.90;;;;;;4921622;29;20051;-82
2022/10/07 04:55:53;;;;;;;16.52;4.45;;;10.60;99.90;;;;;;4921081;29;20071;-81
2022/10/07 04:58:20;;;;;;;13.13;4.25;;;10.50;99.90;;;;;;4938472;29;20040;-83
2022/10/07 05:00:51;;;;;;;12.90;4.65;;;10.50;99.90;;;;;;4921360;29;20087;-83
2022/10/07 05:03:18;;;;;;;11.60;4.20;;;10.50;99.90;;;;;;4921313;29;20102;-82
2022/10/07 05:05:46;;;;;;;14.27;4.68;;;10.40;99.90;;;;;;4922499;29;20062;-82
2022/10/07 05:08:14;;;;;;;13.68;4.72;;;10.40;99.90;;;;;;4921795;29;20048;-82
2022/10/07 05:10:40;;;;;;;14.95;4.72;;;10.40;99.90;;;;;;4939004;29;20054;-82
2022/10/07 05:13:11;;;;;;;16.92;4.45;;;10.30;99.90;;;;;;4922238;29;20130;-81
2022/10/07 05:15:46;;;;;;;16.98;4.50;;;10.30;99.90;;;;;;4939287;29;20052;-82
2022/10/07 05:18:12;;;;;;;16.85;4.30;;;10.30;99.90;;;;;;4922216;29;20075;-82
2022/10/07 05:20:39;;;;;;;13.25;4.40;;;10.30;99.90;;;;;;4920175;29;20102;-81
2022/10/07 05:23:05;;;;;;;17.05;5.03;;;10.30;99.90;;;;;;4919761;29;20059;-81
2022/10/07 05:25:30;;;;;;;14.93;4.47;;;10.30;99.90;;;;;;4919332;29;20122;-82
2022/10/07 05:27:56;;;;;;;18.70;4.80;;;10.30;99.90;;;;;;4919582;29;20043;-82
2022/10/07 05:30:22;;;;;;;18.73;5.57;;;10.30;99.90;;;;;;4919748;29;20076;-82
2022/10/07 05:32:48;;;;;;;13.10;4.93;;;10.30;99.90;;;;;;4919306;29;20438;-82
2022/10/07 05:35:14;;;;;;;15.18;4.88;;;10.30;99.90;;;;;;4918771;29;20059;-82
2022/10/07 05:37:40;;;;;;;17.63;5.05;;;10.30;99.90;;;;;;4918044;29;20047;-81
2022/10/07 05:40:05;;;;;;;15.77;5.28;;;10.30;99.90;;;;;;4919287;29;20056;-82
2022/10/07 05:42:31;;;;;;;14.77;5.43;;;10.30;99.90;;;;;;4936158;29;20039;-82
2022/10/07 05:44:57;;;;;;;13.23;4.78;;;10.40;99.90;;;;;;4936410;29;20479;-82
2022/10/07 05:47:22;;;;;;;17.00;5.43;;;10.40;99.90;;;;;;4936334;29;20040;-82
2022/10/07 05:49:48;;;;;;;16.73;4.47;;;10.40;99.90;;;;;;4919081;29;20063;-82
2022/10/07 05:52:14;;;;;;;17.70;4.65;;;10.40;99.90;;;;;;4919428;29;20043;-82
2022/10/07 05:54:39;;;;;;;16.58;6.15;;;10.40;99.90;;;;;;4936195;29;20447;-81
2022/10/07 05:57:05;;;;;;;13.18;5.00;;;10.40;99.90;;;;;;4919429;29;20071;-81
2022/10/07 05:59:30;;;;;;;21.67;5.85;;;10.40;99.90;;;;;;4935897;29;20051;-82
2022/10/07 06:01:58;;;;;;;17.02;5.53;;;10.50;99.90;;;;;;4935989;29;20388;-82
2022/10/07 06:04:25;;;;;;;18.77;4.80;;;10.50;99.90;;;;;;4918997;29;20072;-81
2022/10/07 06:06:51;;;;;;;16.75;5.25;;;10.50;99.90;;;;;;4918907;29;20056;-83
2022/10/07 06:14:45;;;;;;;15.38;4.50;;;10.60;99.90;;;;;;4919073;29;20076;-82
2022/10/07 06:17:11;;;;;;;15.52;5.53;;;10.60;99.90;;;;;;4936168;29;20440;-84
2022/10/07 06:19:37;;;;;;;16.23;5.20;;;10.60;99.90;;;;;;4918924;29;20467;-82
2022/10/07 06:22:03;;;;;;;18.15;5.13;;;10.70;99.90;;;;;;4936127;29;20066;-81
2022/10/07 06:24:28;;;;;;;21.38;5.53;;;10.70;99.90;;;;;;4919093;29;20452;-81
2022/10/07 06:26:54;;;;;;;17.90;5.25;;;10.70;99.90;;;;;;4935908;29;20558;-82
2022/10/07 06:29:20;;;;;;;14.85;5.22;;;10.80;99.90;;;;;;4936102;29;20095;-81
2022/10/07 06:31:46;;;;;;;18.15;5.07;;;10.80;99.90;;;;;;4918738;29;20415;-82
2022/10/07 06:34:12;;;;;;;16.92;6.03;;;10.90;99.90;;;;;;4918860;29;20052;-82
2022/10/07 06:36:37;;;;;;;18.77;4.90;;;10.90;99.90;;;;;;4935435;29;20410;-82
2022/10/07 06:39:03;;;;;;;16.00;5.75;;;11.00;99.90;;;;;;4899375;29;20063;-82
2022/10/07 06:41:28;;;;;;;17.75;5.30;;;11.00;99.90;;;;;;4916719;29;20075;-82
2022/10/07 06:43:57;;;;;;;17.42;4.95;;;11.10;99.90;;;;;;4900000;29;20518;-82
2022/10/07 06:46:23;;;;;;;15.57;5.43;;;11.10;99.90;;;;;;4899694;29;20055;-81
2022/10/07 06:48:49;;;;;;;17.35;5.45;;;11.20;99.90;;;;;;4917233;29;20052;-82
2022/10/07 06:51:17;;;;;;;27.98;5.50;;;11.30;99.90;;;;;;4903351;29;20055;-81
2022/10/07 06:53:43;;;;;;;20.65;5.28;;;11.30;99.90;;;;;;4920042;29;20530;-83
2022/10/07 06:56:12;;;;;;;18.42;5.28;;;11.40;99.90;;;;;;4902887;29;20052;-82
2022/10/07 06:58:38;;;;;;;14.07;5.25;;;11.40;99.90;;;;;;4904473;29;20079;-82
2022/10/07 07:01:04;;;;;;;15.43;4.60;;;11.50;99.90;;;;;;4939190;29;20098;-81
2022/10/07 07:03:31;;;;;;;23.95;5.05;;;11.50;99.90;;;;;;4922041;29;20059;-82
2022/10/07 07:05:57;;;;;;;20.20;5.68;;;11.50;99.90;;;;;;4921773;29;20071;-80
2022/10/07 07:08:30;;;;;;;17.35;4.90;;;11.50;99.90;;;;;;4921794;29;20047;-80
2022/10/07 07:11:34;;;;;;;18.15;5.40;;;11.60;99.90;;;;;;4939026;29;20092;-80
2022/10/07 07:13:51;;;;;;;14.95;5.38;;;11.60;99.90;;;;;;4921746;29;20055;-82
2022/10/07 07:16:16;;;;;;;18.25;6.20;;;11.60;99.90;;;;;;4938849;29;20094;-82
2022/10/07 07:18:42;;;;;;;19.30;5.05;;;11.70;99.90;;;;;;4921791;29;20078;-81
2022/10/07 07:21:08;;;;;;;16.92;5.63;;;11.70;99.90;;;;;;4938665;29;20043;-81
2022/10/07 07:23:33;;;;;;;14.35;5.30;;;11.80;99.90;;;;;;4921748;29;20451;-82
2022/10/07 07:25:59;;;;;;;14.18;5.97;;;11.80;99.90;;;;;;4938456;29;20467;-83
2022/10/07 07:28:25;;;;;;;19.77;5.70;;;11.90;99.90;;;;;;4938582;29;20051;-80
2022/10/07 07:30:51;;;;;;;16.20;5.72;;;11.90;99.90;;;;;;4938336;29;20059;-81
2022/10/07 07:33:16;;;;;;;18.45;5.53;;;11.90;99.90;;;;;;4938573;29;20079;-80
2022/10/07 07:35:43;;;;;;;16.90;5.65;;;12.00;99.90;;;;;;4921401;29;20130;-82
2022/10/07 07:38:10;;;;;;;19.42;6.63;;;12.00;99.90;;;;;;4914546;29;20466;-79
2022/10/07 07:40:37;;;;;;;15.45;5.50;;;12.10;99.90;;;;;;4920536;29;20044;-80
2022/10/07 07:43:04;;;;;;;14.07;5.63;;;12.10;99.90;;;;;;4902207;29;20391;-80
2022/10/07 07:45:31;;;;;;;15.02;6.18;;;12.10;99.90;;;;;;4901948;29;20086;-80
2022/10/07 07:47:58;;;;;;;15.43;5.10;;;12.20;99.90;;;;;;4901835;29;20048;-81
2022/10/07 07:50:26;;;;;;;18.90;5.30;;;12.20;99.90;;;;;;4901896;29;20056;-79
2022/10/07 07:52:52;;;;;;;17.70;5.72;;;12.40;99.90;;;;;;4918974;29;20095;-81
2022/10/07 07:55:21;;;;;;;14.15;5.30;;;12.40;99.90;;;;;;4901806;29;20048;-82
2022/10/07 07:57:47;;;;;;;13.35;6.28;;;12.50;99.90;;;;;;4918952;29;20119;-81
2022/10/07 08:00:15;;;;;;;22.00;6.15;;;12.60;99.90;;;;;;4911734;29;20515;-80
2022/10/07 08:02:41;;;;;;;13.63;4.80;;;12.70;99.90;;;;;;4918172;29;20103;-81
2022/10/07 08:05:07;;;;;;;17.75;5.35;;;12.70;99.90;;;;;;4917387;29;20048;-80
2022/10/07 08:07:34;;;;;;;12.77;5.07;;;12.80;99.90;;;;;;4917264;29;20059;-82
2022/10/07 08:09:59;;;;;;;18.50;5.68;;;12.90;99.90;;;;;;4918655;29;20127;-81
2022/10/07 08:12:25;;;;;;;15.80;4.70;;;12.90;99.90;;;;;;4918670;29;20127;-81
2022/10/07 08:14:51;;;;;;;18.85;5.57;;;13.00;99.90;;;;;;4917126;29;20130;-80
2022/10/07 08:17:16;;;;;;;12.20;4.60;;;13.00;99.90;;;;;;4917107;29;20040;-81
2022/10/07 08:19:42;;;;;;;19.95;6.20;;;13.10;99.90;;;;;;4918193;29;20139;-80
2022/10/07 08:22:08;;;;;;;14.00;4.82;;;13.00;99.90;;;;;;4917291;29;20048;-80
2022/10/07 08:24:34;;;;;;;10.68;5.00;;;13.10;99.90;;;;;;4931069;29;20050;-80
2022/10/07 08:26:59;;;;;;;18.13;4.85;;;13.10;99.90;;;;;;4935817;29;20047;-81
2022/10/07 08:29:25;;;;;;;16.75;5.20;;;13.20;99.90;;;;;;4935795;29;20099;-81
2022/10/07 08:31:51;;;;;;;14.80;5.43;;;13.20;99.90;;;;;;4935687;29;20048;-80
2022/10/07 08:34:17;;;;;;;16.63;5.80;;;13.30;99.90;;;;;;4935792;29;20096;-80
2022/10/07 08:36:47;;;;;;;16.90;4.85;;;13.40;99.90;;;;;;4935224;29;20143;-80
2022/10/07 08:39:14;;;;;;;12.40;5.13;;;13.50;99.90;;;;;;4935473;29;20055;-81
2022/10/07 08:42:14;;;;;;;10.75;5.05;;;13.50;99.90;;;;;;4935204;29;20076;-80
2022/10/07 08:44:43;;;;;;;15.07;5.32;;;13.60;99.90;;;;;;4935315;29;20044;-82
2022/10/07 08:47:14;;;;;;;14.13;5.25;;;13.60;99.90;;;;;;4937070;29;20119;-80
2022/10/07 08:50:20;;;;;;;15.77;5.28;;;13.60;99.90;;;;;;4935566;29;20479;-80
2022/10/07 08:52:54;;;;;;;17.17;4.50;;;13.60;99.90;;;;;;4878232;29;20060;-84
2022/10/07 08:55:32;;;;;;;12.25;4.85;;;13.60;99.90;;;;;;4930159;29;20052;-81
2022/10/07 08:58:19;;;;;;;15.05;5.20;;;13.60;99.90;;;;;;4935589;29;20056;-80
2022/10/07 09:01:06;;;;;;;17.45;4.88;;;13.80;99.90;;;;;;4935085;29;20524;-80
2022/10/07 09:03:39;;;;;;;17.38;5.05;;;13.80;99.90;;;;;;4936658;29;20059;-81
2022/10/07 09:06:12;;;;;;;12.70;4.28;;;14.00;99.90;;;;;;4935317;29;20110;-80
2022/10/07 09:08:45;;;;;;;14.63;4.28;;;14.00;99.90;;;;;;4935286;29;20114;-80
2022/10/07 09:11:19;;;;;;;13.70;4.70;;;14.10;99.90;;;;;;4936752;29;20036;-80
2022/10/07 09:14:00;;;;;;;14.05;5.38;;;14.20;99.90;;;;;;4936434;29;20130;-80
2022/10/07 09:16:33;;;;;;;13.05;4.18;;;14.30;99.90;;;;;;4935152;29;20051;-80
2022/10/07 09:19:02;;;;;;;10.52;4.30;;;14.40;99.90;;;;;;4936324;29;20402;-80
2022/10/07 09:21:44;;;;;;;13.05;4.47;;;14.40;99.90;;;;;;4936489;29;20043;-80
2022/10/07 09:24:18;;;;;;;13.45;4.25;;;14.60;99.90;;;;;;4935028;29;20083;-80
2022/10/07 09:26:43;;;;;;;15.55;4.13;;;14.70;99.90;;;;;;4935265;29;20055;-81
2022/10/07 09:29:10;;;;;;;16.00;3.83;;;14.80;99.90;;;;;;4935191;29;20047;-80
2022/10/07 09:31:37;;;;;;;14.50;3.97;;;14.80;99.90;;;;;;4934968;29;20044;-85
2022/10/07 09:34:03;;;;;;;16.80;4.63;;;15.00;99.90;;;;;;4936147;29;20055;-80
2022/10/07 09:36:29;;;;;;;13.50;3.38;;;15.00;99.90;;;;;;4935011;29;20142;-80
2022/10/07 09:38:54;;;;;;;18.10;3.83;;;15.10;99.90;;;;;;4934814;29;20395;-80
2022/10/07 09:41:34;;;;;;;16.02;3.40;;;15.20;99.90;;;;;;4936105;29;20091;-80
2022/10/07 09:44:14;;;;;;;12.18;4.20;;;15.30;99.90;;;;;;4933534;29;20043;-80
2022/10/07 09:46:50;;;;;;;20.60;4.50;;;15.30;99.90;;;;;;4934448;29;20052;-79
2022/10/07 09:49:28;;;;;;;13.75;4.25;;;15.40;99.90;;;;;;4935122;29;20187;-80
2022/10/07 09:52:14;;;;;;;14.50;3.67;;;15.50;99.90;;;;;;4934197;29;20060;-80
2022/10/07 09:54:42;;;;;;;12.30;3.50;;;15.60;99.90;;;;;;4934747;29;20502;-81
2022/10/07 09:57:28;;;;;;;15.18;3.40;;;15.70;99.90;;;;;;4934674;29;20064;-80
2022/10/07 10:00:16;;;;;;;12.52;3.22;;;15.70;99.90;;;;;;4925866;29;20138;-80
2022/10/07 10:02:46;;;;;;;13.05;3.15;;;15.80;99.90;;;;;;4919079;29;20126;-80
2022/10/07 10:05:40;;;;;;;15.15;3.72;;;16.00;99.90;;;;;;4919088;29;20491;-80
2022/10/07 10:08:21;;;;;;;21.08;5.05;;;16.10;99.90;;;;;;4932273;29;20048;-81
2022/10/07 10:10:55;;;;;;;17.02;3.20;;;16.20;99.90;;;;;;4919068;29;20052;-81
2022/10/07 10:13:32;;;;;;;18.13;4.65;;;16.30;99.90;;;;;;4918865;29;20055;-80
2022/10/07 10:15:58;;;;;;;10.25;3.50;;;16.30;99.90;;;;;;4918864;29;20102;-80
2022/10/07 10:18:40;;;;;;;14.68;3.38;;;16.30;99.90;;;;;;4918610;29;20404;-80
2022/10/07 10:21:26;;;;;;;16.47;5.13;;;16.40;99.90;;;;;;4935715;29;20491;-80
2022/10/07 10:23:59;;;;;;;12.73;4.82;;;16.40;99.90;;;;;;4936098;29;20467;-80
2022/10/07 10:26:57;;;;;;;13.02;4.97;;;16.40;99.90;;;;;;4939301;29;20554;-81
2022/10/07 10:29:53;;;;;;;12.52;4.25;;;16.50;99.90;;;;;;4939536;29;20140;-80
2022/10/07 10:32:38;;;;;;;12.63;3.35;;;16.50;99.90;;;;;;4954372;29;20048;-81
2022/10/07 10:35:18;;;;;;;13.23;4.07;;;16.60;99.90;;;;;;4922139;29;20055;-81
2022/10/07 10:37:44;;;;;;;16.20;4.50;;;16.60;99.90;;;;;;4939249;29;20126;-80
2022/10/07 10:40:21;;;;;;;14.55;4.95;;;16.80;99.90;;;;;;4939025;29;20511;-81
2022/10/07 10:42:56;;;;;;;20.27;5.00;;;16.70;99.90;;;;;;4922030;29;20056;-81
2022/10/07 10:45:49;;;;;;;13.77;4.25;;;16.80;99.90;;;;;;4921932;29;20448;-80
2022/10/07 10:48:15;;;;;;;9.15;3.13;;;16.90;99.90;;;;;;4922243;29;20102;-83
2022/10/07 10:50:52;;;;;;;10.63;3.78;;;16.80;99.90;;;;;;4938436;29;20582;-82
2022/10/07 10:53:42;;;;;;;12.27;3.08;;;16.80;99.90;;;;;;4938524;29;20122;-81
2022/10/07 10:56:11;;;;;;;9.93;2.65;;;17.00;99.90;;;;;;4938543;29;20046;-81
2022/10/07 10:59:03;;;;;;;10.57;2.90;;;16.90;99.90;;;;;;4921331;29;20051;-81
2022/10/07 11:01:35;;;;;;;12.00;2.95;;;17.00;99.90;;;;;;4921653;29;20047;-80
2022/10/07 11:04:28;;;;;;;10.85;3.15;;;17.00;99.90;;;;;;4938726;29;20090;-80
2022/10/07 11:07:13;;;;;;;11.27;2.45;;;17.10;99.90;;;;;;4938645;29;20055;-81
2022/10/07 11:09:44;;;;;;;13.75;3.70;;;17.00;99.90;;;;;;4921824;29;20060;-81
2022/10/07 11:12:23;;;;;;;10.75;2.60;;;17.20;99.90;;;;;;4921356;29;20047;-79
2022/10/07 11:14:55;;;;;;;10.23;2.97;;;17.10;99.90;;;;;;4936114;29;20051;-81
2022/10/07 11:17:29;;;;;;;11.00;3.20;;;17.00;99.90;;;;;;4921386;29;20447;-79
2022/10/07 11:20:04;;;;;;;13.02;3.25;;;17.00;99.90;;;;;;4921073;29;20063;-81
2022/10/07 11:22:39;;;;;;;11.77;3.20;;;17.00;99.90;;;;;;4921500;29;20047;-80
2022/10/07 11:25:23;;;;;;;11.65;2.80;;;17.10;99.90;;;;;;4921234;29;20063;-80
2022/10/07 11:27:53;;;;;;;11.52;3.00;;;17.10;99.90;;;;;;4921251;29;20487;-80
2022/10/07 11:30:21;;;;;;;12.65;2.67;;;17.00;99.90;;;;;;4921134;29;20492;-80
2022/10/07 11:33:00;;;;;;;12.27;2.80;;;17.10;99.90;;;;;;4921438;29;20048;-80
2022/10/07 11:35:30;;;;;;;10.25;2.30;;;17.20;99.90;;;;;;4921118;29;20567;-81
2022/10/07 11:38:14;;;;;;;9.52;3.17;;;17.30;99.90;;;;;;4920997;29;20052;-80
2022/10/07 11:40:44;;;;;;;10.32;3.25;;;17.30;99.90;;;;;;4920895;29;20404;-80
2022/10/07 11:43:25;;;;;;;14.23;3.28;;;17.20;99.90;;;;;;4937997;29;20439;-79
2022/10/07 11:45:59;;;;;;;11.80;2.58;;;17.40;99.90;;;;;;4937900;29;20047;-80
2022/10/07 11:48:42;;;;;;;9.52;2.45;;;17.50;99.90;;;;;;4920935;29;20059;-81
2022/10/07 11:51:17;;;;;;;11.55;2.83;;;17.50;99.90;;;;;;4937932;29;20040;-81
2022/10/07 11:53:43;;;;;;;8.80;2.13;;;17.50;99.90;;;;;;4921148;29;20063;-79
2022/10/07 11:56:19;;;;;;;11.13;2.47;;;17.50;99.90;;;;;;4920588;29;20048;-80
2022/10/07 11:58:54;;;;;;;10.13;2.40;;;17.50;99.90;;;;;;4937675;29;20047;-81
2022/10/07 12:01:27;;;;;;;11.07;2.42;;;17.30;99.90;;;;;;4937885;29;20183;-80
2022/10/07 12:04:15;;;;;;;10.10;2.70;;;17.40;99.90;;;;;;4920876;29;20059;-81
2022/10/07 12:07:18;;;;;;;10.57;2.90;;;17.50;99.90;;;;;;4937446;29;20048;-80
2022/10/07 12:10:20;;;;;;;8.30;2.67;;;17.40;99.90;;;;;;4937786;29;20052;-80
2022/10/07 12:13:09;;;;;;;10.15;3.40;;;17.40;99.90;;;;;;4892216;29;20055;-81
2022/10/07 12:15:37;;;;;;;16.48;3.00;;;17.40;99.90;;;;;;4920544;29;20467;-79
2022/10/07 12:18:03;;;;;;;13.15;3.33;;;17.30;99.90;;;;;;4920516;29;20063;-81
2022/10/07 12:20:54;;;;;;;11.32;3.22;;;17.20;99.90;;;;;;4920196;29;20074;-80
2022/10/07 12:23:24;;;;;;;12.45;3.40;;;17.30;99.90;;;;;;4920324;29;20055;-80
2022/10/07 12:26:02;;;;;;;14.55;3.25;;;17.40;99.90;;;;;;4920414;29;20051;-80
2022/10/07 12:28:47;;;;;;;11.27;2.72;;;17.40;99.90;;;;;;4920496;29;20499;-80
2022/10/07 12:31:21;;;;;;;9.07;2.67;;;17.60;99.90;;;;;;4937215;29;20055;-79
2022/10/07 12:34:08;;;;;;;9.82;3.00;;;17.70;99.90;;;;;;4937289;29;20050;-80
2022/10/07 12:36:39;;;;;;;8.55;2.53;;;17.70;99.90;;;;;;4920163;29;20110;-80
2022/10/07 12:39:10;;;;;;;12.88;2.90;;;17.60;99.90;;;;;;4936472;29;20044;-80
2022/10/07 12:41:38;;;;;;;13.00;3.03;;;17.60;99.90;;;;;;4936805;29;20431;-80
2022/10/07 12:44:29;;;;;;;15.57;2.83;;;17.50;99.90;;;;;;4919922;29;20055;-80
2022/10/07 12:46:57;;;;;;;10.13;3.47;;;17.40;99.90;;;;;;4919479;29;20059;-80
2022/10/07 12:49:36;;;;;;;11.52;2.78;;;17.50;99.90;;;;;;4919704;29;20043;-80
2022/10/07 12:52:06;;;;;;;11.02;2.40;;;17.50;99.90;;;;;;4919931;29;20056;-80
2022/10/07 12:54:47;;;;;;;14.73;2.60;;;17.50;99.90;;;;;;4919669;29;20055;-81
2022/10/07 12:57:19;;;;;;;14.48;2.42;;;17.40;99.90;;;;;;4936980;29;20069;-80
2022/10/07 12:59:59;;;;;;;9.50;2.72;;;17.50;99.90;;;;;;4936239;29;20060;-80
2022/10/07 13:02:45;;;;;;;10.40;2.22;;;17.40;99.90;;;;;;4936626;29;20074;-81
2022/10/07 13:05:51;;;;;;;9.43;1.70;;;17.50;99.90;;;;;;4936720;29;20052;-80
2022/10/07 13:08:22;;;;;;;7.65;1.98;;;17.60;99.90;;;;;;4919697;29;20118;-80